Terminal Aerodrome Forecast
Issued by NWS

Current Version | Previous Version | Text Only | Print | Product List | Glossary On
Versions: 1 2 3 4 5 6 7 8 9 10 11 12 13 14 15 16 17 18 19 20 21 22 23 24 25
000
FTUS44 KBMX 010936 AAA
TAFMGM
TAF AMD
KMGM 010936Z 0110/0206 00000KT P6SM SCT060 SCT250
      TEMPO 0111/0113 5SM BR
     FM011700 01005KT P6SM SCT250=

USA.gov is the U.S. government's official web portal to all federal, state and local government web resources and services.